Saint Louis, Missouri
Traffic Map
Current Weather Conditions
Saint Louis, Missouri
Clear
Clear
82°
Feels Like: 84°
Wind Chill: 82° Ceiling: Unl
Heat Index: 84° Visibility: 10mi
Dew Point: 67° Wind: 6mph
Humidity: 60% Direction: 200° (SSW)
Pressure: 30.05in Gusts: 0mph
Raw Report DataKCPS 251453Z 20005KT 10SM CLR 28/19 A3005 RMK AO2 SLP172 T02780194 50001
Traffic Incident Summary
Active as of:
Severity:
Category:
InformationThere was an issue retrieving the traffic information for this location. Please try a different location or try again shortly.
Advertisements
Track Severe Weather on mobile